Time;durP1;ratioP1;P1;durP2;ratioP2;P2;SDS_P1;SDS_P2;PMS_P1;PMS_P2;Temp;Humidity;BMP_temperature;BMP_pressure;BME280_temperature;BME280_humidity;BME280_pressure;Samples;Min_cycle;Max_cycle;Signal;HPM_P1;HPM_P2
2022/08/27 00:00:41;;;;;;;18.95;17.35;;;23.60;94.90;;;;;;5026530;28;20209;-86
2022/08/27 00:03:06;;;;;;;17.65;16.25;;;23.50;95.40;;;;;;5023460;28;20235;-86
2022/08/27 00:05:32;;;;;;;17.70;16.10;;;23.60;94.90;;;;;;5031607;28;20196;-86
2022/08/27 00:07:58;;;;;;;18.25;16.85;;;23.60;93.70;;;;;;5028168;28;20219;-87
2022/08/27 00:10:26;;;;;;;17.85;16.35;;;23.70;94.70;;;;;;5038675;28;20220;-86
2022/08/27 00:12:55;;;;;;;17.67;15.88;;;23.60;93.80;;;;;;5024834;28;20577;-86
2022/08/27 00:15:21;;;;;;;17.15;15.77;;;23.70;92.20;;;;;;5031126;28;20197;-86
2022/08/27 00:17:47;;;;;;;17.52;16.23;;;23.70;92.70;;;;;;5028376;28;20259;-86
2022/08/27 00:20:17;;;;;;;17.45;16.13;;;23.70;91.40;;;;;;5029760;28;20201;-86
2022/08/27 00:22:43;;;;;;;17.27;15.88;;;23.70;92.70;;;;;;5028243;28;20190;-86
2022/08/27 00:25:09;;;;;;;18.25;16.75;;;23.70;93.10;;;;;;5030880;28;20611;-87
2022/08/27 00:27:36;;;;;;;18.60;16.85;;;23.70;92.90;;;;;;5031244;28;20692;-86
2022/08/27 00:30:03;;;;;;;17.73;16.23;;;23.70;93.30;;;;;;5028699;28;20720;-86
2022/08/27 00:32:29;;;;;;;16.83;15.52;;;23.70;93.50;;;;;;5022365;28;20287;-87
2022/08/27 00:34:54;;;;;;;18.80;17.20;;;23.70;93.00;;;;;;5031872;28;20657;-87
2022/08/27 00:37:20;;;;;;;20.55;18.75;;;23.80;92.20;;;;;;5023528;28;20207;-86
2022/08/27 00:39:45;;;;;;;18.02;16.50;;;23.70;92.00;;;;;;5023824;28;20189;-87
2022/08/27 00:42:11;;;;;;;18.58;17.05;;;23.70;91.70;;;;;;5026629;28;20302;-87
2022/08/27 00:44:38;;;;;;;19.20;17.70;;;23.90;91.00;;;;;;5024431;28;20215;-86
2022/08/27 00:47:09;;;;;;;20.08;18.48;;;23.90;91.70;;;;;;5025937;28;20197;-87
2022/08/27 00:49:54;;;;;;;19.33;17.73;;;24.00;92.00;;;;;;5023614;28;20177;-87
2022/08/27 00:52:52;;;;;;;17.65;16.17;;;23.90;91.90;;;;;;5026052;28;20193;-87
2022/08/27 00:55:23;;;;;;;19.23;17.63;;;23.80;92.80;;;;;;5028899;28;20189;-85
2022/08/27 00:58:00;;;;;;;20.17;18.55;;;23.80;92.80;;;;;;5026810;28;20251;-87
2022/08/27 01:00:26;;;;;;;19.30;17.70;;;23.80;92.60;;;;;;5025786;28;20742;-86
2022/08/27 01:02:52;;;;;;;21.85;20.05;;;23.90;92.50;;;;;;5025463;28;20201;-87
2022/08/27 01:05:24;;;;;;;21.45;19.65;;;23.80;93.20;;;;;;5021925;28;20794;-87
2022/08/27 01:07:54;;;;;;;20.33;18.67;;;23.50;93.80;;;;;;5022811;28;20195;-86
2022/08/27 01:10:23;;;;;;;19.80;18.30;;;23.40;94.60;;;;;;5019959;28;20213;-86
2022/08/27 01:12:52;;;;;;;19.52;17.95;;;23.30;95.10;;;;;;5024715;28;20608;-87
2022/08/27 01:15:20;;;;;;;18.10;16.60;;;23.40;93.90;;;;;;5031339;28;20193;-87
2022/08/27 01:17:46;;;;;;;16.50;15.20;;;23.50;92.60;;;;;;5023268;28;20272;-87
2022/08/27 01:20:30;;;;;;;19.05;17.55;;;23.60;91.60;;;;;;5015377;28;20225;-87
2022/08/27 01:23:12;;;;;;;18.90;17.38;;;23.70;92.50;;;;;;5024211;28;20185;-87
2022/08/27 01:25:42;;;;;;;18.05;16.45;;;23.70;92.60;;;;;;5025842;28;20232;-87
2022/08/27 01:28:09;;;;;;;19.15;17.50;;;23.80;92.30;;;;;;5021295;28;20203;-88
2022/08/27 01:30:36;;;;;;;18.08;16.67;;;23.80;90.90;;;;;;5022379;28;20353;-87
2022/08/27 01:33:15;;;;;;;18.08;16.58;;;23.80;90.90;;;;;;5025846;28;20205;-87
2022/08/27 01:35:46;;;;;;;19.38;17.77;;;23.80;90.70;;;;;;5023489;28;20203;-85
2022/08/27 01:38:14;;;;;;;20.48;18.88;;;23.80;91.30;;;;;;5021942;28;20270;-87
2022/08/27 01:40:40;;;;;;;22.00;20.27;;;23.70;92.90;;;;;;5025013;28;20201;-87
2022/08/27 01:43:06;;;;;;;22.83;21.02;;;23.40;94.20;;;;;;5018592;28;20189;-87
2022/08/27 01:45:35;;;;;;;20.23;18.63;;;23.20;94.70;;;;;;5020758;28;20674;-87
2022/08/27 01:48:02;;;;;;;21.17;19.27;;;23.20;94.50;;;;;;5024876;28;20209;-87
2022/08/27 01:50:32;;;;;;;20.80;19.02;;;23.10;95.00;;;;;;5025254;28;20212;-87
2022/08/27 01:53:03;;;;;;;20.85;19.23;;;23.00;96.00;;;;;;5021208;28;20522;-85
2022/08/27 01:55:29;;;;;;;21.77;20.00;;;23.00;95.60;;;;;;5027706;28;20185;-87
2022/08/27 01:57:55;;;;;;;22.80;20.77;;;22.90;95.40;;;;;;5028683;28;20199;-85
2022/08/27 02:00:24;;;;;;;21.85;19.95;;;22.70;97.10;;;;;;5041928;28;20241;-87
2022/08/27 02:02:50;;;;;;;21.23;19.42;;;22.70;97.30;;;;;;5017132;28;20193;-87
2022/08/27 02:05:17;;;;;;;21.42;19.70;;;22.80;96.20;;;;;;5025641;28;20204;-86
2022/08/27 02:07:43;;;;;;;20.20;18.60;;;22.70;95.90;;;;;;5019446;28;20193;-87
2022/08/27 02:10:13;;;;;;;22.02;20.33;;;22.80;96.00;;;;;;5023009;28;20548;-87
2022/08/27 02:12:38;;;;;;;24.38;22.20;;;22.80;96.70;;;;;;5021964;28;20229;-87
2022/08/27 02:15:05;;;;;;;23.85;21.77;;;22.80;97.60;;;;;;5022094;28;20503;-86
2022/08/27 02:17:31;;;;;;;23.55;21.67;;;22.80;97.10;;;;;;5026241;28;20193;-87
2022/08/27 02:19:57;;;;;;;25.60;23.48;;;22.70;96.90;;;;;;5021770;28;20600;-87
2022/08/27 02:22:23;;;;;;;23.95;21.95;;;22.70;96.90;;;;;;5022851;28;20212;-87
2022/08/27 02:24:49;;;;;;;23.67;21.58;;;22.70;98.00;;;;;;5019789;28;20505;-86
2022/08/27 02:27:14;;;;;;;24.63;22.52;;;22.90;96.40;;;;;;5024777;28;20656;-87
2022/08/27 02:29:40;;;;;;;22.90;21.00;;;22.70;97.20;;;;;;5031564;28;20209;-87
2022/08/27 02:32:06;;;;;;;25.48;23.13;;;22.70;97.20;;;;;;5018933;28;20724;-87
2022/08/27 02:34:32;;;;;;;23.13;21.27;;;22.70;96.90;;;;;;5027996;28;20699;-86
2022/08/27 02:36:57;;;;;;;20.73;18.92;;;22.80;96.70;;;;;;5025951;28;20259;-85
2022/08/27 02:39:23;;;;;;;20.88;19.17;;;22.80;95.80;;;;;;5026933;28;20185;-85
2022/08/27 02:41:48;;;;;;;22.45;20.42;;;22.90;95.30;;;;;;5022206;28;20292;-86
2022/08/27 02:44:15;;;;;;;22.65;20.65;;;23.00;94.80;;;;;;5029450;28;20189;-86
2022/08/27 02:46:41;;;;;;;21.88;20.08;;;23.10;94.50;;;;;;5030138;28;20195;-85
2022/08/27 02:49:08;;;;;;;22.63;20.40;;;23.10;94.40;;;;;;5028417;28;20209;-87
2022/08/27 02:51:34;;;;;;;21.52;19.75;;;23.20;93.90;;;;;;5026327;28;20251;-86
2022/08/27 02:54:01;;;;;;;20.98;19.20;;;23.20;93.20;;;;;;5018385;28;20190;-88
2022/08/27 02:56:27;;;;;;;21.52;19.73;;;23.30;93.20;;;;;;5019717;28;20490;-88
2022/08/27 02:58:53;;;;;;;20.42;18.63;;;23.30;92.40;;;;;;5027567;28;20698;-88
2022/08/27 03:01:19;;;;;;;24.40;22.20;;;23.30;92.30;;;;;;5031530;28;20204;-88
2022/08/27 03:03:45;;;;;;;23.83;21.67;;;23.40;93.60;;;;;;5027911;28;20185;-87
2022/08/27 03:06:11;;;;;;;23.38;21.35;;;23.40;94.00;;;;;;5024882;28;20213;-88
2022/08/27 03:08:37;;;;;;;23.42;21.10;;;23.40;93.90;;;;;;5027045;28;20260;-88
2022/08/27 03:11:05;;;;;;;23.38;21.30;;;23.30;94.70;;;;;;5024641;28;20742;-88
2022/08/27 03:13:34;;;;;;;22.75;20.75;;;23.30;93.70;;;;;;5020763;28;20185;-86
2022/08/27 03:16:00;;;;;;;23.23;21.33;;;23.40;94.20;;;;;;5019972;28;20182;-88
2022/08/27 03:18:26;;;;;;;20.95;19.25;;;23.40;93.60;;;;;;5020518;28;20702;-87
2022/08/27 03:20:54;;;;;;;22.65;20.75;;;23.40;92.90;;;;;;5024224;28;20351;-88
2022/08/27 03:23:23;;;;;;;21.38;19.65;;;23.50;93.10;;;;;;5025131;28;20579;-87
2022/08/27 03:25:53;;;;;;;20.88;19.20;;;23.50;92.20;;;;;;5025607;28;20266;-88
2022/08/27 03:28:21;;;;;;;21.38;19.58;;;23.50;92.10;;;;;;5015685;28;20584;-87
2022/08/27 03:30:52;;;;;;;24.35;22.20;;;23.50;92.80;;;;;;5026554;28;20202;-87
2022/08/27 03:33:20;;;;;;;23.15;21.25;;;23.40;93.40;;;;;;5023773;28;20655;-88
2022/08/27 03:35:46;;;;;;;23.60;21.50;;;23.30;93.70;;;;;;5021267;28;20239;-88
2022/08/27 03:38:12;;;;;;;22.95;21.02;;;23.30;93.70;;;;;;5025627;28;20664;-88
2022/08/27 03:40:38;;;;;;;23.02;21.08;;;23.40;93.00;;;;;;5028048;28;20217;-88
2022/08/27 03:43:04;;;;;;;24.70;22.70;;;23.30;92.40;;;;;;5027664;28;20686;-88
2022/08/27 03:45:29;;;;;;;22.30;20.52;;;23.30;93.90;;;;;;5021056;28;20660;-88
2022/08/27 03:47:55;;;;;;;21.15;19.50;;;23.30;93.20;;;;;;5029866;28;20276;-87
2022/08/27 03:50:21;;;;;;;21.33;19.63;;;23.40;93.10;;;;;;5020907;28;20249;-87
2022/08/27 03:52:46;;;;;;;22.17;20.27;;;23.40;92.90;;;;;;5023527;28;20619;-88
2022/08/27 03:55:13;;;;;;;22.73;20.83;;;23.40;92.80;;;;;;5022529;28;20188;-88
2022/08/27 03:57:39;;;;;;;22.10;20.15;;;23.40;93.40;;;;;;5023728;28;20526;-88
2022/08/27 04:00:09;;;;;;;22.35;20.35;;;23.50;92.00;;;;;;5020820;28;20214;-87
2022/08/27 04:02:35;;;;;;;21.10;19.40;;;23.50;91.70;;;;;;5028936;28;20185;-89
2022/08/27 04:05:00;;;;;;;19.83;18.17;;;23.50;92.20;;;;;;5019053;28;20188;-88
2022/08/27 04:07:26;;;;;;;22.08;20.17;;;23.40;92.10;;;;;;5027811;28;20192;-88
2022/08/27 04:09:52;;;;;;;22.13;20.33;;;23.50;93.70;;;;;;5022490;28;20649;-86
2022/08/27 04:12:17;;;;;;;22.08;20.38;;;23.40;94.00;;;;;;5025731;28;20204;-88
2022/08/27 04:14:43;;;;;;;21.00;19.25;;;23.30;94.10;;;;;;5005017;28;20204;-88
2022/08/27 04:17:09;;;;;;;23.10;21.20;;;23.40;94.00;;;;;;5024217;28;20196;-87
2022/08/27 04:19:35;;;;;;;21.08;19.25;;;23.40;95.10;;;;;;5023220;28;20659;-87
2022/08/27 04:22:05;;;;;;;24.45;22.23;;;23.30;93.00;;;;;;5027153;28;20216;-88
2022/08/27 04:24:33;;;;;;;22.67;20.60;;;23.40;93.30;;;;;;5018693;28;20284;-88
2022/08/27 04:27:00;;;;;;;23.75;21.75;;;23.20;94.40;;;;;;5019452;28;20190;-88
2022/08/27 04:29:26;;;;;;;22.20;20.50;;;22.80;96.20;;;;;;5027729;28;20492;-88
2022/08/27 04:31:51;;;;;;;22.52;20.42;;;22.80;96.60;;;;;;5017701;28;20304;-88
2022/08/27 04:34:17;;;;;;;22.40;20.55;;;23.00;96.30;;;;;;5027346;28;20264;-88
2022/08/27 04:36:44;;;;;;;21.20;19.38;;;23.00;96.60;;;;;;5026837;28;20200;-88
2022/08/27 04:39:11;;;;;;;22.70;20.80;;;22.90;96.30;;;;;;5019840;28;20671;-88
2022/08/27 04:41:37;;;;;;;23.60;21.48;;;22.90;96.20;;;;;;5022852;28;20217;-87
2022/08/27 04:44:06;;;;;;;23.42;21.52;;;23.00;95.60;;;;;;5025809;28;20296;-87
2022/08/27 04:46:34;;;;;;;23.25;21.35;;;23.00;94.50;;;;;;5026063;28;20192;-88
2022/08/27 04:49:04;;;;;;;21.33;19.60;;;23.10;94.50;;;;;;5028626;28;20283;-88
2022/08/27 04:51:30;;;;;;;22.80;20.80;;;23.30;93.30;;;;;;5026263;28;20303;-88
2022/08/27 04:53:56;;;;;;;22.98;21.08;;;23.20;94.70;;;;;;5026585;28;20264;-88
2022/08/27 04:56:23;;;;;;;21.95;20.15;;;23.20;94.40;;;;;;5018599;28;20292;-87
2022/08/27 04:58:51;;;;;;;24.20;22.30;;;23.10;93.70;;;;;;5023763;28;20275;-88
2022/08/27 05:01:19;;;;;;;22.02;19.92;;;23.10;93.80;;;;;;5029038;28;20286;-87
2022/08/27 05:03:45;;;;;;;22.08;20.33;;;23.20;93.20;;;;;;5027554;28;20799;-88
2022/08/27 05:06:11;;;;;;;22.50;20.50;;;23.30;93.00;;;;;;5026237;28;20258;-88
2022/08/27 05:08:38;;;;;;;22.73;20.77;;;23.30;93.30;;;;;;5026163;28;20203;-88
2022/08/27 05:11:06;;;;;;;26.48;24.17;;;23.30;93.70;;;;;;5028381;28;20541;-88
2022/08/27 05:13:32;;;;;;;23.23;21.20;;;23.20;94.30;;;;;;5028019;28;20671;-87
2022/08/27 05:16:00;;;;;;;23.95;21.60;;;23.20;93.70;;;;;;5025181;28;20193;-88
2022/08/27 05:18:26;;;;;;;24.83;22.48;;;23.20;94.00;;;;;;5030620;28;20222;-88
2022/08/27 05:20:52;;;;;;;24.27;22.13;;;23.20;95.10;;;;;;5019206;28;20288;-87
2022/08/27 05:23:19;;;;;;;26.48;24.15;;;23.10;94.30;;;;;;5047829;28;20260;-85
2022/08/27 05:25:47;;;;;;;24.05;22.15;;;23.20;95.30;;;;;;5028776;28;20217;-87
2022/08/27 05:28:14;;;;;;;23.77;21.75;;;23.20;94.10;;;;;;5040734;28;20334;-88
2022/08/27 05:30:45;;;;;;;22.67;20.83;;;23.20;93.70;;;;;;5027007;28;20467;-88
2022/08/27 05:33:13;;;;;;;23.55;21.55;;;23.20;94.60;;;;;;5027266;28;20212;-87
2022/08/27 05:35:44;;;;;;;24.05;22.00;;;23.20;94.80;;;;;;5019308;28;20223;-88
2022/08/27 05:38:10;;;;;;;26.65;24.25;;;23.30;93.80;;;;;;5028981;28;20181;-86
2022/08/27 05:40:37;;;;;;;23.02;21.10;;;23.20;95.50;;;;;;5027504;28;20205;-87
2022/08/27 05:43:04;;;;;;;24.35;22.33;;;23.30;93.40;;;;;;5028869;28;20264;-87
2022/08/27 05:45:30;;;;;;;24.25;22.05;;;23.40;93.60;;;;;;5024757;28;20203;-88
2022/08/27 05:47:56;;;;;;;24.58;22.38;;;23.30;93.20;;;;;;5026370;28;20192;-88
2022/08/27 05:50:21;;;;;;;24.27;22.10;;;23.30;93.40;;;;;;5022587;28;20634;-87
2022/08/27 05:52:47;;;;;;;27.23;24.73;;;23.30;93.00;;;;;;5025549;28;20692;-87
2022/08/27 05:55:12;;;;;;;23.67;21.40;;;23.40;93.40;;;;;;5020895;28;20257;-88
2022/08/27 05:57:38;;;;;;;23.02;20.92;;;23.30;93.80;;;;;;5018126;28;20696;-86
2022/08/27 06:02:49;;;;;;;27.45;25.00;;;23.30;95.10;;;;;;5025211;28;20196;-86
2022/08/27 06:05:15;;;;;;;26.73;24.17;;;23.20;96.00;;;;;;5031838;28;20181;-85
2022/08/27 06:07:41;;;;;;;28.80;26.10;;;23.10;96.00;;;;;;5020479;28;20262;-87
2022/08/27 06:10:07;;;;;;;27.67;25.13;;;23.10;96.70;;;;;;5028863;28;20355;-87
2022/08/27 06:12:33;;;;;;;24.75;22.45;;;23.10;95.60;;;;;;5028945;28;20300;-87
2022/08/27 06:14:59;;;;;;;24.00;21.58;;;23.00;95.60;;;;;;5018904;28;20219;-87
2022/08/27 06:17:25;;;;;;;29.02;26.23;;;23.00;95.70;;;;;;5027756;28;20208;-87
2022/08/27 06:19:51;;;;;;;24.50;22.00;;;23.10;96.30;;;;;;5026053;28;20178;-88
2022/08/27 06:22:16;;;;;;;29.35;26.67;;;23.20;95.50;;;;;;5027582;28;20595;-88
2022/08/27 06:24:42;;;;;;;26.75;24.38;;;23.20;95.40;;;;;;5023845;28;20180;-86
2022/08/27 06:27:11;;;;;;;26.55;24.10;;;23.20;95.20;;;;;;5032434;28;20188;-86
2022/08/27 06:29:36;;;;;;;27.85;25.35;;;23.30;94.80;;;;;;5023307;28;20196;-87
2022/08/27 06:32:03;;;;;;;26.25;23.92;;;23.40;94.50;;;;;;5022405;28;20262;-87
2022/08/27 06:34:28;;;;;;;27.13;24.83;;;23.40;94.50;;;;;;5026360;28;20191;-87
2022/08/27 06:36:54;;;;;;;26.65;24.10;;;23.30;94.30;;;;;;5038170;28;20193;-85
2022/08/27 06:39:19;;;;;;;23.63;21.65;;;23.20;95.00;;;;;;5029382;28;20189;-87
2022/08/27 06:41:45;;;;;;;29.10;26.52;;;23.20;95.10;;;;;;5019738;28;20236;-87
2022/08/27 06:44:14;;;;;;;24.23;22.02;;;23.20;95.80;;;;;;5026684;28;20870;-87
2022/08/27 06:46:41;;;;;;;25.75;23.45;;;23.20;94.60;;;;;;5023138;28;20200;-86
2022/08/27 06:49:07;;;;;;;24.15;22.00;;;23.10;95.60;;;;;;5034926;28;20189;-86
2022/08/27 06:51:35;;;;;;;24.55;22.25;;;23.20;94.70;;;;;;5031818;28;20221;-86
2022/08/27 06:54:05;;;;;;;24.48;22.23;;;23.30;93.60;;;;;;5031803;28;20303;-86
2022/08/27 06:56:31;;;;;;;27.90;25.27;;;23.30;94.00;;;;;;5031467;28;20211;-86
2022/08/27 06:59:00;;;;;;;23.23;21.13;;;23.30;94.70;;;;;;5031638;28;20283;-87
2022/08/27 07:01:29;;;;;;;26.40;23.92;;;23.40;93.50;;;;;;5033614;28;20263;-88
2022/08/27 07:03:57;;;;;;;26.17;23.80;;;23.50;92.20;;;;;;5032073;28;20679;-85
2022/08/27 07:06:24;;;;;;;26.77;24.48;;;23.50;95.20;;;;;;5032299;28;20253;-87
2022/08/27 07:08:50;;;;;;;25.67;23.25;;;23.50;96.10;;;;;;5032514;28;20189;-86
2022/08/27 07:11:16;;;;;;;24.80;22.42;;;23.40;95.30;;;;;;5016631;28;20209;-86
2022/08/27 07:13:44;;;;;;;26.40;23.90;;;23.40;95.20;;;;;;5016089;28;20661;-87
2022/08/27 07:16:16;;;;;;;24.27;22.23;;;23.40;95.10;;;;;;5011684;28;20388;-86
2022/08/27 07:18:42;;;;;;;24.63;22.15;;;23.40;94.80;;;;;;5016851;28;20646;-86
2022/08/27 07:21:07;;;;;;;24.10;22.08;;;23.40;96.30;;;;;;5033194;28;20663;-88
2022/08/27 07:23:36;;;;;;;26.67;24.27;;;23.40;95.50;;;;;;5031029;28;20575;-88
2022/08/27 07:26:09;;;;;;;25.58;23.27;;;23.40;95.70;;;;;;5012909;28;20652;-86
2022/08/27 07:28:36;;;;;;;24.95;22.75;;;23.40;94.90;;;;;;5030399;28;20188;-88
2022/08/27 07:31:04;;;;;;;24.25;22.05;;;23.50;94.60;;;;;;5018514;28;20205;-86
2022/08/27 07:33:30;;;;;;;23.65;21.67;;;23.50;94.40;;;;;;5020634;28;20181;-87
2022/08/27 07:35:55;;;;;;;25.92;23.80;;;23.50;95.20;;;;;;5025610;28;20674;-86
2022/08/27 07:38:21;;;;;;;24.92;22.70;;;23.50;95.90;;;;;;5016961;28;20206;-86
2022/08/27 07:40:47;;;;;;;25.77;23.45;;;23.40;96.00;;;;;;5030701;28;20251;-85
2022/08/27 07:46:00;;;;;;;25.73;23.52;;;23.20;97.20;;;;;;5027421;28;20267;-86
2022/08/27 07:48:26;;;;;;;24.98;22.80;;;23.30;96.70;;;;;;5032130;28;20263;-86
2022/08/27 07:50:52;;;;;;;27.40;24.83;;;23.20;97.90;;;;;;5026007;28;20271;-88
2022/08/27 07:53:19;;;;;;;24.35;22.35;;;23.10;98.50;;;;;;5028968;28;20193;-88
2022/08/27 07:55:45;;;;;;;25.95;23.85;;;23.10;97.70;;;;;;5032879;28;20197;-86
2022/08/27 07:58:12;;;;;;;22.40;20.35;;;23.10;99.00;;;;;;5025202;28;20182;-87
2022/08/27 08:00:41;;;;;;;24.33;22.35;;;23.10;98.00;;;;;;5026750;28;20251;-86
2022/08/27 08:03:07;;;;;;;21.50;19.80;;;23.00;99.10;;;;;;5019291;28;20191;-87
2022/08/27 08:05:33;;;;;;;23.17;21.17;;;23.00;97.90;;;;;;5032741;28;20189;-86
2022/08/27 08:07:59;;;;;;;25.17;23.02;;;23.10;98.60;;;;;;5032612;28;20192;-87
2022/08/27 08:10:25;;;;;;;22.77;20.95;;;23.10;98.60;;;;;;5014076;28;20213;-89
2022/08/27 08:12:50;;;;;;;26.13;23.88;;;23.00;98.90;;;;;;5028650;28;20623;-87
2022/08/27 08:15:17;;;;;;;22.65;20.63;;;23.00;98.80;;;;;;5022535;28;20194;-87
2022/08/27 08:17:44;;;;;;;24.15;22.10;;;22.90;98.50;;;;;;5014807;28;20180;-86
2022/08/27 08:20:11;;;;;;;24.25;22.10;;;22.90;97.70;;;;;;5031659;28;20235;-87
2022/08/27 08:22:37;;;;;;;22.60;20.83;;;22.80;97.60;;;;;;5031329;28;20188;-86
2022/08/27 08:25:04;;;;;;;22.92;20.85;;;22.70;96.40;;;;;;5022216;28;20513;-87
2022/08/27 08:27:31;;;;;;;22.80;20.90;;;22.50;96.50;;;;;;5025863;28;20193;-86
2022/08/27 08:30:00;;;;;;;24.10;21.83;;;22.30;97.90;;;;;;5020373;28;20565;-87
2022/08/27 08:32:26;;;;;;;22.00;20.05;;;22.20;98.00;;;;;;5019632;28;20213;-86
2022/08/27 08:34:52;;;;;;;21.30;19.50;;;22.10;98.90;;;;;;5020242;28;20185;-87
2022/08/27 08:37:18;;;;;;;22.05;20.00;;;21.90;97.90;;;;;;5032356;28;20668;-86
2022/08/27 08:39:43;;;;;;;22.60;20.70;;;21.80;97.60;;;;;;5022732;28;20204;-88
2022/08/27 08:42:38;;;;;;;21.48;19.73;;;21.80;99.10;;;;;;5032108;28;20217;-88
2022/08/27 08:45:05;;;;;;;22.58;20.63;;;21.70;99.60;;;;;;5047855;28;20228;-90
2022/08/27 08:47:47;;;;;;;22.75;20.83;;;21.60;99.30;;;;;;5043647;28;20236;-88
2022/08/27 08:50:25;;;;;;;21.65;19.80;;;21.70;99.60;;;;;;5039612;28;20244;-88
2022/08/27 08:53:04;;;;;;;21.38;19.63;;;21.80;98.70;;;;;;5027810;28;20200;-86
2022/08/27 08:55:53;;;;;;;20.85;19.08;;;21.90;98.90;;;;;;5028759;28;20184;-88
2022/08/27 08:58:33;;;;;;;21.83;20.00;;;22.00;98.70;;;;;;5021792;28;20192;-88
2022/08/27 09:01:02;;;;;;;23.50;21.00;;;22.10;99.10;;;;;;5017029;28;20205;-87
2022/08/27 09:03:31;;;;;;;20.80;19.02;;;22.10;99.40;;;;;;5020966;28;20199;-86
2022/08/27 09:06:25;;;;;;;22.25;20.45;;;22.00;99.80;;;;;;5021276;28;20664;-87
2022/08/27 09:08:51;;;;;;;20.48;18.75;;;22.00;99.00;;;;;;5022574;28;20513;-87
2022/08/27 09:11:38;;;;;;;22.10;20.25;;;22.10;99.90;;;;;;5018839;28;20213;-88
2022/08/27 09:14:37;;;;;;;21.77;19.95;;;22.20;99.70;;;;;;5021483;28;20180;-90
2022/08/27 09:17:04;;;;;;;21.55;19.75;;;22.20;99.90;;;;;;5024279;28;20731;-87
2022/08/27 09:19:30;;;;;;;21.95;19.85;;;22.20;99.40;;;;;;5014522;28;20193;-87
2022/08/27 09:22:03;;;;;;;21.70;19.90;;;22.30;99.00;;;;;;5028882;28;20239;-88
2022/08/27 09:25:06;;;;;;;20.38;18.75;;;22.30;98.70;;;;;;5027844;28;20268;-87
2022/08/27 09:27:34;;;;;;;21.05;19.35;;;22.40;98.50;;;;;;5031429;28;20282;-87
2022/08/27 09:30:06;;;;;;;18.25;16.75;;;22.50;98.40;;;;;;5030149;28;20200;-88
2022/08/27 09:32:33;;;;;;;20.25;18.45;;;22.60;96.80;;;;;;5025796;28;20634;-86
2022/08/27 09:35:03;;;;;;;20.27;18.58;;;22.70;96.90;;;;;;5026050;28;20209;-87
2022/08/27 09:37:31;;;;;;;18.30;16.70;;;22.70;97.60;;;;;;5026628;28;20193;-87
2022/08/27 09:40:24;;;;;;;21.77;19.88;;;22.80;96.70;;;;;;5034321;28;20555;-90
2022/08/27 09:42:52;;;;;;;21.67;19.77;;;22.80;98.50;;;;;;5034478;28;20185;-87
2022/08/27 09:45:22;;;;;;;22.20;20.40;;;22.80;97.30;;;;;;5034189;28;20195;-88
2022/08/27 09:47:53;;;;;;;19.30;17.80;;;22.70;97.60;;;;;;5033886;28;20196;-87
2022/08/27 09:50:22;;;;;;;20.80;19.20;;;22.60;97.30;;;;;;5032718;28;20303;-88
2022/08/27 09:52:58;;;;;;;20.63;18.90;;;22.70;98.00;;;;;;5034164;28;20213;-88
2022/08/27 09:55:41;;;;;;;19.25;17.65;;;22.60;97.70;;;;;;5034000;28;20165;-87
2022/08/27 09:58:20;;;;;;;18.85;17.30;;;22.60;97.70;;;;;;5013234;28;20666;-86
2022/08/27 10:00:47;;;;;;;19.08;17.52;;;22.70;96.90;;;;;;5014644;28;20217;-90
2022/08/27 10:03:13;;;;;;;21.05;19.38;;;22.70;97.30;;;;;;5012707;28;20189;-87
2022/08/27 10:05:50;;;;;;;19.75;18.05;;;22.70;98.10;;;;;;5030457;28;20532;-87
2022/08/27 10:08:18;;;;;;;20.20;18.40;;;22.70;96.80;;;;;;5034620;28;20564;-88
2022/08/27 10:10:47;;;;;;;19.45;17.95;;;22.70;97.30;;;;;;5034234;28;20208;-87
2022/08/27 10:13:18;;;;;;;21.73;19.98;;;22.80;96.40;;;;;;5034256;28;20459;-86
2022/08/27 10:16:03;;;;;;;21.73;19.58;;;22.50;97.50;;;;;;5034519;28;20492;-89
2022/08/27 10:18:52;;;;;;;20.05;18.48;;;22.60;98.30;;;;;;5034625;28;20173;-88
2022/08/27 10:21:51;;;;;;;20.17;18.40;;;22.70;98.50;;;;;;5020047;28;20224;-88
2022/08/27 10:24:23;;;;;;;21.10;19.35;;;22.60;96.70;;;;;;5015003;28;20629;-87
2022/08/27 10:27:26;;;;;;;23.27;21.10;;;22.60;97.30;;;;;;5025207;28;20188;-88
2022/08/27 10:30:10;;;;;;;19.50;17.90;;;22.50;98.70;;;;;;5033751;28;20181;-86
2022/08/27 10:32:50;;;;;;;20.77;19.05;;;22.50;98.50;;;;;;5031455;28;20279;-87
2022/08/27 10:35:32;;;;;;;21.85;19.88;;;22.50;98.50;;;;;;5032763;28;20193;-86
2022/08/27 10:38:13;;;;;;;19.90;18.30;;;22.50;99.40;;;;;;5034238;28;20219;-86
2022/08/27 10:41:01;;;;;;;21.13;19.15;;;22.40;98.90;;;;;;5034548;28;20279;-87
2022/08/27 10:43:53;;;;;;;19.45;17.85;;;22.40;99.50;;;;;;5034589;28;20169;-87
2022/08/27 10:46:45;;;;;;;22.02;20.25;;;22.30;98.40;;;;;;5034209;28;20260;-88
2022/08/27 10:49:41;;;;;;;22.08;20.17;;;22.20;99.40;;;;;;5033429;28;20176;-86
2022/08/27 10:52:24;;;;;;;22.42;20.52;;;22.20;99.60;;;;;;5035868;28;20706;-86
2022/08/27 10:55:01;;;;;;;21.10;19.20;;;22.20;98.90;;;;;;5037069;28;20168;-87
2022/08/27 10:57:51;;;;;;;21.75;19.88;;;22.20;98.40;;;;;;5033775;28;20167;-87
2022/08/27 11:00:20;;;;;;;19.88;18.17;;;22.20;99.40;;;;;;5034155;28;20212;-89
2022/08/27 11:02:53;;;;;;;19.52;18.02;;;22.10;99.90;;;;;;5031961;28;20664;-88
2022/08/27 11:05:27;;;;;;;20.05;18.35;;;22.20;99.90;;;;;;5033832;28;20450;-87
2022/08/27 11:07:59;;;;;;;20.85;19.15;;;22.20;99.90;;;;;;5033743;28;20162;-88
2022/08/27 11:10:31;;;;;;;22.15;20.25;;;22.20;99.20;;;;;;5034387;28;20287;-86
2022/08/27 11:13:05;;;;;;;22.65;20.75;;;22.10;99.80;;;;;;5033236;28;20232;-87
2022/08/27 11:15:37;;;;;;;19.35;17.77;;;22.00;99.90;;;;;;5033316;28;20480;-87
2022/08/27 11:18:23;;;;;;;20.65;18.98;;;22.10;99.80;;;;;;5033109;28;20181;-86
2022/08/27 11:20:58;;;;;;;21.45;19.75;;;22.20;99.60;;;;;;5032818;28;20196;-88
2022/08/27 11:23:35;;;;;;;19.45;17.75;;;22.20;99.90;;;;;;5013109;28;20596;-87
2022/08/27 11:26:03;;;;;;;20.55;18.65;;;22.30;99.50;;;;;;5017956;28;20192;-87
2022/08/27 11:28:51;;;;;;;21.42;19.45;;;22.30;99.90;;;;;;5032205;28;20660;-87
2022/08/27 11:31:35;;;;;;;19.40;17.70;;;22.30;99.90;;;;;;5033556;28;20228;-87
2022/08/27 11:34:23;;;;;;;21.13;19.42;;;22.40;99.90;;;;;;5034491;28;20528;-87
2022/08/27 11:37:26;;;;;;;20.02;18.45;;;22.40;99.30;;;;;;5031231;28;20188;-88
2022/08/27 11:40:26;;;;;;;21.35;19.65;;;22.20;99.90;;;;;;5011834;28;20181;-87
2022/08/27 11:43:01;;;;;;;20.13;18.52;;;22.20;99.90;;;;;;5025639;28;20189;-87
2022/08/27 11:45:33;;;;;;;18.83;17.20;;;22.20;99.90;;;;;;5032403;28;20180;-86
2022/08/27 11:48:02;;;;;;;20.92;19.42;;;22.30;99.90;;;;;;5031956;28;20195;-89
2022/08/27 11:50:30;;;;;;;19.83;18.23;;;22.30;99.90;;;;;;5030177;28;20711;-87
2022/08/27 11:53:04;;;;;;;21.50;19.65;;;22.30;99.80;;;;;;5031390;28;20215;-87
2022/08/27 11:55:32;;;;;;;20.85;19.08;;;22.30;99.40;;;;;;5031604;28;20180;-87
2022/08/27 11:58:16;;;;;;;21.95;19.92;;;22.30;99.70;;;;;;5031834;28;20173;-89
2022/08/27 12:00:44;;;;;;;21.98;19.98;;;22.30;99.90;;;;;;5013655;28;20263;-86
2022/08/27 12:03:19;;;;;;;21.20;19.20;;;22.30;99.70;;;;;;5034619;28;20607;-86
2022/08/27 12:05:52;;;;;;;23.83;21.73;;;22.20;99.10;;;;;;5036106;28;20543;-86
2022/08/27 12:08:20;;;;;;;24.92;22.98;;;22.10;99.90;;;;;;5036346;28;20218;-89
2022/08/27 12:10:49;;;;;;;24.15;22.05;;;22.10;99.90;;;;;;5033585;28;20208;-86
2022/08/27 12:13:21;;;;;;;22.38;20.38;;;22.10;99.90;;;;;;5033442;28;20283;-87
2022/08/27 12:16:10;;;;;;;17.98;16.55;;;22.20;99.90;;;;;;5043228;28;20200;-92
2022/08/27 12:19:06;;;;;;;18.73;17.02;;;22.20;98.90;;;;;;5054908;28;20400;-90
2022/08/27 12:21:53;;;;;;;20.00;18.33;;;22.50;97.40;;;;;;5045002;28;20205;-88
2022/08/27 12:24:36;;;;;;;23.08;21.08;;;22.70;97.40;;;;;;5031812;28;20184;-87
2022/08/27 12:27:33;;;;;;;21.73;19.88;;;22.80;98.80;;;;;;5032723;28;20181;-87
2022/08/27 12:30:17;;;;;;;20.13;18.50;;;22.90;95.90;;;;;;5022913;28;20546;-86
2022/08/27 12:32:45;;;;;;;21.15;19.27;;;23.00;96.50;;;;;;5030144;28;20243;-88
2022/08/27 12:35:22;;;;;;;20.92;19.20;;;23.00;95.90;;;;;;5028028;28;20243;-87
2022/08/27 12:37:53;;;;;;;24.20;22.00;;;23.10;95.30;;;;;;5029770;28;20705;-87
2022/08/27 12:40:27;;;;;;;24.42;22.30;;;22.90;96.40;;;;;;5029711;28;20204;-86
2022/08/27 12:43:16;;;;;;;25.52;23.30;;;22.80;97.70;;;;;;5029963;28;20187;-88
2022/08/27 12:45:47;;;;;;;23.70;21.83;;;22.80;98.10;;;;;;5029348;28;20537;-86
2022/08/27 12:48:15;;;;;;;23.30;21.30;;;22.60;99.70;;;;;;5026516;28;20189;-86
2022/08/27 12:50:41;;;;;;;23.10;21.10;;;22.80;97.90;;;;;;5025334;28;20729;-88